createdAt,value
2022-11-30T00:00:31.287Z,0.00
2022-11-30T00:01:31.288Z,0.00
2022-11-30T00:02:31.408Z,0.00
2022-11-30T00:03:31.298Z,0.00
2022-11-30T00:04:31.258Z,0.00
2022-11-30T00:05:31.248Z,0.00
2022-11-30T00:06:31.218Z,0.00
2022-11-30T00:07:31.300Z,0.00
2022-11-30T00:08:31.191Z,0.00
2022-11-30T00:09:31.208Z,0.00
2022-11-30T00:10:31.203Z,0.00
2022-11-30T00:11:31.193Z,0.00
2022-11-30T00:12:31.153Z,0.00
2022-11-30T00:13:31.159Z,0.00
2022-11-30T00:14:31.128Z,0.00
2022-11-30T00:15:31.160Z,0.00
2022-11-30T00:16:31.163Z,0.00
2022-11-30T00:17:31.106Z,0.00
2022-11-30T00:18:31.105Z,0.00
2022-11-30T00:19:31.087Z,0.00
2022-11-30T00:20:31.090Z,0.00
2022-11-30T00:21:31.068Z,0.00
2022-11-30T00:22:31.038Z,0.00
2022-11-30T00:23:31.039Z,0.00
2022-11-30T00:24:31.019Z,0.00
2022-11-30T00:25:31.038Z,0.00
2022-11-30T00:26:31.007Z,0.00
2022-11-30T00:27:30.986Z,0.00
2022-11-30T00:28:30.967Z,0.00
2022-11-30T00:29:31.565Z,0.00
2022-11-30T00:30:30.999Z,0.00
2022-11-30T00:31:30.977Z,0.00
2022-11-30T00:32:30.939Z,0.00
2022-11-30T00:33:30.927Z,0.00
2022-11-30T00:34:30.918Z,0.00
2022-11-30T00:35:30.906Z,0.00
2022-11-30T00:36:30.966Z,0.00
2022-11-30T00:37:30.899Z,0.00
2022-11-30T00:38:30.859Z,0.00
2022-11-30T00:39:35.308Z,0.00
2022-11-30T00:40:30.857Z,0.00
2022-11-30T00:41:30.871Z,0.00
2022-11-30T00:42:30.818Z,0.00
2022-11-30T00:43:30.831Z,0.00
2022-11-30T00:44:30.799Z,0.00
2022-11-30T00:45:30.804Z,0.00
2022-11-30T00:46:30.784Z,0.00
2022-11-30T00:47:30.887Z,0.00
2022-11-30T00:48:30.763Z,0.00
2022-11-30T00:49:30.799Z,0.00
2022-11-30T00:50:30.728Z,0.00
2022-11-30T00:51:30.747Z,0.00
2022-11-30T00:52:30.711Z,0.00
2022-11-30T00:53:30.709Z,0.00
2022-11-30T00:54:30.678Z,0.00
2022-11-30T00:55:30.667Z,0.00
2022-11-30T00:56:30.656Z,0.00
2022-11-30T00:57:30.695Z,0.00
2022-11-30T00:58:30.636Z,0.00
2022-11-30T00:59:30.651Z,0.00
2022-11-30T01:00:30.611Z,0.00
2022-11-30T01:01:30.668Z,0.00
2022-11-30T01:02:30.622Z,0.00
2022-11-30T01:03:30.621Z,0.00
2022-11-30T01:04:30.572Z,0.00
2022-11-30T01:05:30.566Z,0.00
2022-11-30T01:06:30.547Z,0.00
2022-11-30T01:07:30.620Z,0.00
2022-11-30T01:08:30.543Z,0.00
2022-11-30T01:09:30.586Z,0.00
2022-11-30T01:10:30.500Z,0.00
2022-11-30T01:11:30.527Z,0.00
2022-11-30T01:12:30.487Z,0.00
2022-11-30T01:13:30.487Z,0.00
2022-11-30T01:14:30.455Z,0.00
2022-11-30T01:15:30.533Z,0.00
2022-11-30T01:16:30.439Z,0.00
2022-11-30T01:17:30.447Z,0.00
2022-11-30T01:18:30.439Z,0.00
2022-11-30T01:19:30.448Z,0.00
2022-11-30T01:20:30.400Z,0.00
2022-11-30T01:21:30.388Z,0.00
2022-11-30T01:22:30.391Z,0.00
2022-11-30T01:23:30.375Z,0.00
2022-11-30T01:24:30.358Z,0.00
2022-11-30T01:25:30.340Z,0.00
2022-11-30T01:26:30.356Z,0.00
2022-11-30T01:27:30.319Z,0.00
2022-11-30T01:28:30.308Z,0.00
2022-11-30T01:29:30.360Z,0.00
2022-11-30T01:30:30.309Z,0.00
2022-11-30T01:31:30.287Z,0.00
2022-11-30T01:32:30.252Z,0.00
2022-11-30T01:33:30.261Z,0.00
2022-11-30T01:34:30.276Z,0.00
2022-11-30T01:35:30.239Z,0.00
2022-11-30T01:36:30.211Z,0.00
2022-11-30T01:37:30.210Z,0.00
2022-11-30T01:38:30.208Z,0.00
2022-11-30T01:39:30.213Z,0.00
2022-11-30T01:40:30.217Z,0.00
2022-11-30T01:41:30.177Z,0.00
2022-11-30T01:42:30.136Z,0.00
2022-11-30T01:43:30.180Z,0.00
2022-11-30T01:44:30.160Z,0.00
2022-11-30T01:45:30.128Z,0.00
2022-11-30T01:46:30.137Z,0.00
2022-11-30T01:47:30.108Z,0.00
2022-11-30T01:48:30.076Z,0.00
2022-11-30T01:49:30.110Z,0.00
2022-11-30T01:50:30.999Z,0.00
2022-11-30T01:51:30.051Z,0.00
2022-11-30T01:52:30.056Z,0.00
2022-11-30T01:53:30.048Z,0.00
2022-11-30T01:54:30.037Z,0.00
2022-11-30T01:55:30.031Z,0.00
2022-11-30T01:56:30.013Z,0.00
2022-11-30T01:57:29.988Z,0.00
2022-11-30T01:58:29.984Z,0.00
2022-11-30T01:59:29.985Z,0.00
2022-11-30T02:00:29.948Z,0.00
2022-11-30T02:01:29.998Z,0.00
2022-11-30T02:02:29.970Z,0.00
2022-11-30T02:03:29.920Z,0.00
2022-11-30T02:04:29.932Z,0.00
2022-11-30T02:05:29.898Z,0.00
2022-11-30T02:06:29.885Z,0.00
2022-11-30T02:07:29.996Z,0.00
2022-11-30T02:08:29.978Z,0.00
2022-11-30T02:09:29.856Z,0.00
2022-11-30T02:10:29.860Z,0.00
2022-11-30T02:11:29.830Z,0.00
2022-11-30T02:12:29.826Z,0.00
2022-11-30T02:13:29.821Z,0.00
2022-11-30T02:14:29.800Z,0.00
2022-11-30T02:15:29.887Z,0.00
2022-11-30T02:16:29.810Z,0.00
2022-11-30T02:17:29.769Z,0.00
2022-11-30T02:18:29.754Z,0.00
2022-11-30T02:19:29.761Z,0.00
2022-11-30T02:20:29.721Z,0.00
2022-11-30T02:21:29.756Z,0.00
2022-11-30T02:22:29.718Z,0.00
2022-11-30T02:23:29.718Z,0.00
2022-11-30T02:24:29.762Z,0.00
2022-11-30T02:25:29.672Z,0.00
2022-11-30T02:26:29.663Z,0.00
2022-11-30T02:27:29.679Z,0.00
2022-11-30T02:28:29.636Z,0.00
2022-11-30T02:29:29.630Z,0.00
2022-11-30T02:30:29.615Z,0.00
2022-11-30T02:31:29.664Z,0.00
2022-11-30T02:32:29.631Z,0.00
2022-11-30T02:33:29.617Z,0.00
2022-11-30T02:34:29.621Z,0.00
2022-11-30T02:35:29.560Z,0.00
2022-11-30T02:36:29.548Z,0.00
2022-11-30T02:37:29.561Z,0.00
2022-11-30T02:38:29.536Z,0.00
2022-11-30T02:39:29.522Z,0.00
2022-11-30T02:40:29.497Z,0.00
2022-11-30T02:41:33.650Z,0.00
2022-11-30T02:42:30.506Z,0.00
2022-11-30T02:43:29.478Z,0.00
2022-11-30T02:44:29.462Z,0.00
2022-11-30T02:45:29.456Z,0.00
2022-11-30T02:46:29.484Z,0.00
2022-11-30T02:47:29.469Z,0.00
2022-11-30T02:48:29.442Z,0.00
2022-11-30T02:49:29.422Z,0.00
2022-11-30T02:50:29.390Z,0.00
2022-11-30T02:51:29.421Z,0.00
2022-11-30T02:52:29.369Z,0.00
2022-11-30T02:53:29.369Z,0.00
2022-11-30T02:54:29.381Z,0.00
2022-11-30T02:55:29.374Z,0.00
2022-11-30T02:56:29.321Z,0.00
2022-11-30T02:57:29.329Z,0.00
2022-11-30T02:58:29.311Z,0.00
2022-11-30T02:59:29.319Z,0.00
2022-11-30T03:00:29.282Z,0.00
2022-11-30T03:01:29.314Z,0.00
2022-11-30T03:02:29.283Z,0.00
2022-11-30T03:03:29.270Z,0.00
2022-11-30T03:04:29.259Z,0.00
2022-11-30T03:05:29.233Z,0.00
2022-11-30T03:06:29.222Z,0.00
2022-11-30T03:07:29.232Z,0.00
2022-11-30T03:08:29.196Z,0.00
2022-11-30T03:09:29.210Z,0.00
2022-11-30T03:10:29.174Z,0.00
2022-11-30T03:11:29.202Z,0.00
2022-11-30T03:12:29.154Z,0.00
2022-11-30T03:13:29.163Z,0.00
2022-11-30T03:14:29.132Z,0.00
2022-11-30T03:15:29.125Z,0.00
2022-11-30T03:16:29.118Z,0.00
2022-11-30T03:17:29.101Z,0.00
2022-11-30T03:18:29.112Z,0.00
2022-11-30T03:19:29.082Z,0.00
2022-11-30T03:20:29.060Z,0.00
2022-11-30T03:21:29.078Z,0.00
2022-11-30T03:22:29.044Z,0.00
2022-11-30T03:23:29.030Z,0.00
2022-11-30T03:24:29.019Z,0.00
2022-11-30T03:25:29.011Z,0.00
2022-11-30T03:26:28.999Z,0.00
2022-11-30T03:27:28.999Z,0.00
2022-11-30T03:28:28.991Z,0.00
2022-11-30T03:29:28.960Z,0.00
2022-11-30T03:30:28.952Z,0.00
2022-11-30T03:31:29.015Z,0.00
2022-11-30T03:32:28.935Z,0.00
2022-11-30T03:33:28.910Z,0.00
2022-11-30T03:34:28.922Z,0.00
2022-11-30T03:35:28.882Z,0.00
2022-11-30T03:36:28.911Z,0.00
2022-11-30T03:37:28.876Z,0.00
2022-11-30T03:38:29.798Z,0.00
2022-11-30T03:39:28.860Z,0.00
2022-11-30T03:40:28.892Z,0.00
2022-11-30T03:41:28.854Z,0.00
2022-11-30T03:42:28.823Z,0.00
2022-11-30T03:43:28.817Z,0.00
2022-11-30T03:44:28.791Z,0.00
2022-11-30T03:45:28.795Z,0.00
2022-11-30T03:46:28.848Z,0.00
2022-11-30T03:47:28.759Z,0.00
2022-11-30T03:48:28.759Z,0.00
2022-11-30T03:49:28.743Z,0.00
2022-11-30T03:50:28.739Z,0.00
2022-11-30T03:51:28.739Z,0.00
2022-11-30T03:52:28.739Z,0.00
2022-11-30T03:53:28.691Z,0.00
2022-11-30T03:54:28.678Z,0.00
2022-11-30T03:55:28.678Z,0.00
2022-11-30T03:56:28.680Z,0.00
2022-11-30T03:57:28.671Z,0.00
2022-11-30T03:58:28.640Z,0.00
2022-11-30T03:59:28.628Z,0.00
2022-11-30T04:00:28.625Z,0.00
2022-11-30T04:01:28.655Z,0.00
2022-11-30T04:02:28.641Z,0.00
2022-11-30T04:03:28.573Z,0.00
2022-11-30T04:04:28.635Z,0.00
2022-11-30T04:05:28.559Z,0.00
2022-11-30T04:06:28.580Z,0.00
2022-11-30T04:07:28.567Z,0.00
2022-11-30T04:08:28.519Z,0.00
2022-11-30T04:09:28.511Z,0.00
2022-11-30T04:10:28.511Z,0.00
2022-11-30T04:11:28.523Z,0.00
2022-11-30T04:12:28.512Z,0.00
2022-11-30T04:13:28.459Z,0.00
2022-11-30T04:14:28.475Z,0.00
2022-11-30T04:15:28.451Z,0.00
2022-11-30T04:16:28.490Z,0.00
2022-11-30T04:17:28.440Z,0.00
2022-11-30T04:18:28.431Z,0.00
2022-11-30T04:19:28.399Z,0.00
2022-11-30T04:20:28.412Z,0.00
2022-11-30T04:21:28.379Z,0.00
2022-11-30T04:22:28.419Z,0.00
2022-11-30T04:23:28.360Z,0.00
2022-11-30T04:24:28.351Z,0.00
2022-11-30T04:25:28.324Z,0.00
2022-11-30T04:26:28.343Z,0.00
2022-11-30T04:27:28.731Z,0.00
2022-11-30T04:28:28.313Z,0.00
2022-11-30T04:29:28.293Z,0.00
2022-11-30T04:30:28.291Z,0.00
2022-11-30T04:31:28.312Z,0.00
2022-11-30T04:32:28.262Z,0.00
2022-11-30T04:33:28.271Z,0.00
2022-11-30T04:34:28.252Z,0.00
2022-11-30T04:35:28.221Z,0.00
2022-11-30T04:36:28.213Z,0.00
2022-11-30T04:37:28.202Z,0.00
2022-11-30T04:38:28.199Z,0.00
2022-11-30T04:39:28.189Z,0.00
2022-11-30T04:40:28.161Z,0.00
2022-11-30T04:41:28.170Z,0.00
2022-11-30T04:42:28.160Z,0.00
2022-11-30T04:43:28.140Z,0.00
2022-11-30T04:44:28.148Z,0.00
2022-11-30T04:45:31.271Z,0.00
2022-11-30T04:46:29.150Z,0.00
2022-11-30T04:47:28.109Z,0.00
2022-11-30T04:48:28.092Z,0.00
2022-11-30T04:49:28.093Z,0.00
2022-11-30T04:50:28.069Z,0.00
2022-11-30T04:51:28.040Z,0.00
2022-11-30T04:52:28.041Z,0.00
2022-11-30T04:53:28.030Z,0.00
2022-11-30T04:54:28.032Z,0.00
2022-11-30T04:55:28.053Z,0.00
2022-11-30T04:56:28.001Z,0.00
2022-11-30T04:57:27.968Z,0.00
2022-11-30T04:58:27.980Z,0.00
2022-11-30T04:59:27.953Z,0.00
2022-11-30T05:00:27.960Z,0.00
2022-11-30T05:01:27.988Z,0.00
2022-11-30T05:02:27.929Z,0.00
2022-11-30T05:03:27.908Z,0.00
2022-11-30T05:04:27.969Z,0.00
2022-11-30T05:05:27.901Z,0.00
2022-11-30T05:06:27.908Z,0.00
2022-11-30T05:07:27.911Z,0.00
2022-11-30T05:08:27.880Z,0.00
2022-11-30T05:09:27.849Z,0.00
2022-11-30T05:10:27.848Z,0.00
2022-11-30T05:11:27.841Z,0.00
2022-11-30T05:12:27.813Z,0.00
2022-11-30T05:13:27.805Z,0.00
2022-11-30T05:14:27.801Z,0.00
2022-11-30T05:15:27.796Z,0.00
2022-11-30T05:16:27.873Z,0.00
2022-11-30T05:17:27.765Z,0.00
2022-11-30T05:18:27.761Z,0.00
2022-11-30T05:19:27.730Z,0.00
2022-11-30T05:20:27.732Z,0.00
2022-11-30T05:21:27.701Z,0.00
2022-11-30T05:22:27.735Z,0.00
2022-11-30T05:23:27.692Z,0.00
2022-11-30T05:24:27.704Z,0.00
2022-11-30T05:25:27.654Z,0.00
2022-11-30T05:26:27.653Z,0.00
2022-11-30T05:27:27.892Z,0.00
2022-11-30T05:28:27.653Z,0.00
2022-11-30T05:29:27.639Z,0.00
2022-11-30T05:30:27.642Z,0.00
2022-11-30T05:31:27.668Z,0.00
2022-11-30T05:32:27.601Z,0.00
2022-11-30T05:33:27.589Z,0.00
2022-11-30T05:34:27.577Z,0.00
2022-11-30T05:35:27.557Z,0.00
2022-11-30T05:36:27.553Z,0.00
2022-11-30T05:37:27.615Z,0.00
2022-11-30T05:38:27.573Z,0.00
2022-11-30T05:39:27.582Z,0.00
2022-11-30T05:40:27.522Z,0.00
2022-11-30T05:41:27.512Z,0.00
2022-11-30T05:42:27.572Z,0.00
2022-11-30T05:43:27.473Z,0.00
2022-11-30T05:44:27.469Z,0.00
2022-11-30T05:45:27.449Z,0.00
2022-11-30T05:46:27.470Z,0.00
2022-11-30T05:47:27.409Z,0.00
2022-11-30T05:48:27.429Z,0.00
2022-11-30T05:49:27.430Z,0.00
2022-11-30T05:50:27.390Z,0.00
2022-11-30T05:51:27.382Z,0.00
2022-11-30T05:52:27.361Z,0.00
2022-11-30T05:53:27.375Z,0.00
2022-11-30T05:54:27.349Z,0.00
2022-11-30T05:55:27.349Z,0.00
2022-11-30T05:56:27.338Z,0.00
2022-11-30T05:57:27.309Z,0.00
2022-11-30T05:58:27.341Z,0.00
2022-11-30T05:59:27.277Z,0.00
2022-11-30T06:00:27.273Z,0.00
2022-11-30T06:01:27.265Z,0.00
2022-11-30T06:02:28.520Z,0.00
2022-11-30T06:03:27.322Z,0.00
2022-11-30T06:04:27.239Z,0.00
2022-11-30T06:05:27.213Z,0.00
2022-11-30T06:06:27.221Z,0.00
2022-11-30T06:07:27.253Z,0.00
2022-11-30T06:08:27.205Z,0.00
2022-11-30T06:09:27.194Z,0.00
2022-11-30T06:10:27.173Z,0.00
2022-11-30T06:11:27.150Z,0.00
2022-11-30T06:12:27.170Z,0.00
2022-11-30T06:13:28.939Z,0.00
2022-11-30T06:14:27.125Z,0.00
2022-11-30T06:15:27.124Z,0.00
2022-11-30T06:16:27.180Z,0.00
2022-11-30T06:17:27.090Z,0.00
2022-11-30T06:18:27.103Z,0.00
2022-11-30T06:19:27.062Z,0.00
2022-11-30T06:20:27.102Z,0.00
2022-11-30T06:21:27.090Z,0.00
2022-11-30T06:22:27.062Z,0.00
2022-11-30T06:23:27.014Z,0.00
2022-11-30T06:24:27.032Z,0.00
2022-11-30T06:25:27.001Z,0.00
2022-11-30T06:26:27.143Z,0.00
2022-11-30T06:27:26.978Z,0.00
2022-11-30T06:28:26.994Z,0.00
2022-11-30T06:29:26.945Z,0.00
2022-11-30T06:30:26.961Z,0.00
2022-11-30T06:31:27.155Z,0.00
2022-11-30T06:32:26.924Z,0.00
2022-11-30T06:33:26.910Z,0.00
2022-11-30T06:34:26.943Z,0.00
2022-11-30T06:35:26.910Z,0.00
2022-11-30T06:36:30.112Z,0.00
2022-11-30T06:37:27.882Z,0.00
2022-11-30T06:38:26.905Z,0.00
2022-11-30T06:39:49.925Z,0.00
2022-11-30T06:40:27.846Z,0.00
2022-11-30T06:41:26.831Z,0.00
2022-11-30T06:42:26.843Z,0.00
2022-11-30T06:43:26.798Z,0.00
2022-11-30T06:44:26.803Z,0.00
2022-11-30T06:45:26.835Z,0.00
2022-11-30T06:46:26.783Z,0.00
2022-11-30T06:47:26.751Z,0.00
2022-11-30T06:48:26.762Z,0.00
2022-11-30T06:49:26.731Z,0.00
2022-11-30T06:50:26.715Z,0.00
2022-11-30T06:51:26.710Z,0.00
2022-11-30T06:52:26.723Z,0.00
2022-11-30T06:53:26.687Z,0.00
2022-11-30T06:54:26.683Z,0.00
2022-11-30T06:55:26.658Z,0.00
2022-11-30T06:56:26.670Z,0.00
2022-11-30T06:57:26.635Z,4.00
2022-11-30T06:58:26.654Z,4.00
2022-11-30T06:59:26.611Z,4.00
2022-11-30T07:00:26.615Z,4.00
2022-11-30T07:01:26.701Z,4.00
2022-11-30T07:02:26.605Z,4.00
2022-11-30T07:03:26.638Z,4.00
2022-11-30T07:04:26.680Z,0.00
2022-11-30T07:05:26.556Z,0.00
2022-11-30T07:06:26.602Z,4.00
2022-11-30T07:07:26.566Z,4.00
2022-11-30T07:08:26.581Z,4.00
2022-11-30T07:09:26.511Z,4.00
2022-11-30T07:10:26.503Z,4.00
2022-11-30T07:11:26.491Z,4.00
2022-11-30T07:12:26.559Z,4.00
2022-11-30T07:13:26.484Z,4.00
2022-11-30T07:14:26.632Z,4.00
2022-11-30T07:15:26.445Z,8.00
2022-11-30T07:16:26.530Z,8.00
2022-11-30T07:17:26.465Z,8.00
2022-11-30T07:18:31.653Z,8.00
2022-11-30T07:19:27.380Z,12.00
2022-11-30T07:20:26.395Z,8.00
2022-11-30T07:21:26.393Z,12.00
2022-11-30T07:22:26.392Z,12.00
2022-11-30T07:23:26.355Z,12.00
2022-11-30T07:24:26.364Z,12.00
2022-11-30T07:25:26.320Z,16.00
2022-11-30T07:26:26.332Z,12.00
2022-11-30T07:27:26.335Z,16.00
2022-11-30T07:28:26.299Z,16.00
2022-11-30T07:29:26.283Z,20.00
2022-11-30T07:30:26.280Z,20.00
2022-11-30T07:31:26.304Z,20.00
2022-11-30T07:32:26.301Z,20.00
2022-11-30T07:33:26.244Z,20.00
2022-11-30T07:34:26.234Z,16.00
2022-11-30T07:35:26.220Z,20.00
2022-11-30T07:36:26.219Z,20.00
2022-11-30T07:37:26.200Z,16.00
2022-11-30T07:38:26.183Z,16.00
2022-11-30T07:39:26.180Z,16.00
2022-11-30T07:40:26.213Z,20.00
2022-11-30T07:41:26.152Z,24.00
2022-11-30T07:42:26.145Z,20.00
2022-11-30T07:43:26.124Z,24.00
2022-11-30T07:44:26.203Z,24.00
2022-11-30T07:45:26.100Z,24.00
2022-11-30T07:46:26.083Z,28.00
2022-11-30T07:47:26.232Z,28.00
2022-11-30T07:48:26.073Z,28.00
2022-11-30T07:49:26.065Z,28.00
2022-11-30T07:50:26.104Z,32.00
2022-11-30T07:51:26.048Z,36.00
2022-11-30T07:52:26.024Z,40.00
2022-11-30T07:53:26.042Z,36.00
2022-11-30T07:54:26.009Z,40.00
2022-11-30T07:55:25.999Z,44.00
2022-11-30T07:56:25.980Z,52.00
2022-11-30T07:57:25.992Z,52.00
2022-11-30T07:58:25.980Z,56.00
2022-11-30T07:59:25.953Z,56.00
2022-11-30T08:00:25.935Z,64.00
2022-11-30T08:01:26.005Z,64.00
2022-11-30T08:02:26.070Z,68.00
2022-11-30T08:03:25.922Z,72.00
2022-11-30T08:04:26.103Z,80.00
2022-11-30T08:05:25.893Z,84.00
2022-11-30T08:06:25.880Z,88.00
2022-11-30T08:07:25.937Z,92.00
2022-11-30T08:08:25.862Z,92.00
2022-11-30T08:09:25.876Z,92.00
2022-11-30T08:10:25.856Z,92.00
2022-11-30T08:11:25.825Z,88.00
2022-11-30T08:12:25.792Z,96.00
2022-11-30T08:13:25.813Z,96.00
2022-11-30T08:14:25.782Z,104.00
2022-11-30T08:15:32.079Z,104.00
2022-11-30T08:16:26.873Z,108.00
2022-11-30T08:17:25.745Z,108.00
2022-11-30T08:18:25.743Z,116.00
2022-11-30T08:19:25.737Z,128.00
2022-11-30T08:20:25.725Z,136.00
2022-11-30T08:21:25.751Z,140.00
2022-11-30T08:22:25.714Z,132.00
2022-11-30T08:23:25.685Z,136.00
2022-11-30T08:24:25.734Z,136.00
2022-11-30T08:25:25.688Z,128.00
2022-11-30T08:26:25.644Z,124.00
2022-11-30T08:27:25.652Z,120.00
2022-11-30T08:28:25.621Z,116.00
2022-11-30T08:29:25.621Z,108.00
2022-11-30T08:30:29.317Z,96.00
2022-11-30T08:31:26.642Z,92.00
2022-11-30T08:32:25.582Z,92.00
2022-11-30T08:33:29.307Z,96.00
2022-11-30T08:34:26.568Z,100.00
2022-11-30T08:35:25.581Z,108.00
2022-11-30T08:36:25.541Z,108.00
2022-11-30T08:37:25.764Z,100.00
2022-11-30T08:38:25.515Z,100.00
2022-11-30T08:39:25.513Z,96.00
2022-11-30T08:40:25.502Z,96.00
2022-11-30T08:41:25.522Z,96.00
2022-11-30T08:42:25.461Z,96.00
2022-11-30T08:43:25.473Z,96.00
2022-11-30T08:44:25.465Z,92.00
2022-11-30T08:45:25.442Z,92.00
2022-11-30T08:46:50.338Z,96.00
2022-11-30T08:47:26.457Z,92.00
2022-11-30T08:48:25.403Z,96.00
2022-11-30T08:49:25.670Z,100.00
2022-11-30T08:50:25.373Z,112.00
2022-11-30T08:51:25.392Z,116.00
2022-11-30T08:52:25.386Z,132.00
2022-11-30T08:53:25.353Z,140.00
2022-11-30T08:54:25.357Z,136.00
2022-11-30T08:55:25.325Z,152.00
2022-11-30T08:56:25.326Z,160.00
2022-11-30T08:57:25.315Z,164.00
2022-11-30T08:58:25.286Z,164.00
2022-11-30T08:59:25.282Z,160.00
2022-11-30T09:00:25.282Z,148.00
2022-11-30T09:01:28.358Z,140.00
2022-11-30T09:02:26.282Z,136.00
2022-11-30T09:03:25.246Z,136.00
2022-11-30T09:04:25.234Z,136.00
2022-11-30T09:05:25.353Z,156.00
2022-11-30T09:06:25.202Z,164.00
2022-11-30T09:07:25.252Z,160.00
2022-11-30T09:08:25.189Z,156.00
2022-11-30T09:09:25.172Z,156.00
2022-11-30T09:10:25.149Z,164.00
2022-11-30T09:11:25.183Z,176.00
2022-11-30T09:12:25.129Z,176.00
2022-11-30T09:13:25.142Z,168.00
2022-11-30T09:14:25.114Z,164.00
2022-11-30T09:15:25.114Z,156.00
2022-11-30T09:16:25.123Z,156.00
2022-11-30T09:17:25.110Z,164.00
2022-11-30T09:18:25.075Z,160.00
2022-11-30T09:19:25.061Z,164.00
2022-11-30T09:20:25.044Z,172.00
2022-11-30T09:21:25.049Z,168.00
2022-11-30T09:22:25.029Z,180.00
2022-11-30T09:23:25.028Z,184.00
2022-11-30T09:24:24.995Z,200.00
2022-11-30T09:25:25.015Z,200.00
2022-11-30T09:26:24.966Z,196.00
2022-11-30T09:27:25.042Z,184.00
2022-11-30T09:28:24.976Z,180.00
2022-11-30T09:29:24.955Z,176.00
2022-11-30T09:30:24.991Z,172.00
2022-11-30T09:31:24.924Z,168.00
2022-11-30T09:32:24.914Z,176.00
2022-11-30T09:33:24.907Z,184.00
2022-11-30T09:34:24.895Z,172.00
2022-11-30T09:35:24.886Z,172.00
2022-11-30T09:36:24.863Z,176.00
2022-11-30T09:37:24.872Z,176.00
2022-11-30T09:38:24.849Z,184.00
2022-11-30T09:39:24.843Z,196.00
2022-11-30T09:40:24.843Z,192.00
2022-11-30T09:41:24.823Z,196.00
2022-11-30T09:42:24.829Z,220.00
2022-11-30T09:43:24.782Z,216.00
2022-11-30T09:44:24.875Z,208.00
2022-11-30T09:45:24.794Z,212.00
2022-11-30T09:46:24.805Z,212.00
2022-11-30T09:47:27.545Z,216.00
2022-11-30T09:48:25.724Z,216.00
2022-11-30T09:49:24.749Z,220.00
2022-11-30T09:50:24.816Z,236.00
2022-11-30T09:51:24.692Z,216.00
2022-11-30T09:52:24.684Z,188.00
2022-11-30T09:53:29.493Z,172.00
2022-11-30T09:54:25.684Z,172.00
2022-11-30T09:55:24.658Z,172.00
2022-11-30T09:56:24.651Z,168.00
2022-11-30T09:57:24.648Z,164.00
2022-11-30T09:58:24.615Z,164.00
2022-11-30T09:59:24.615Z,168.00
2022-11-30T10:00:24.637Z,168.00
2022-11-30T10:01:24.678Z,172.00
2022-11-30T10:02:24.778Z,172.00
2022-11-30T10:03:24.616Z,172.00
2022-11-30T10:04:24.556Z,188.00
2022-11-30T10:05:24.567Z,192.00
2022-11-30T10:06:24.536Z,184.00
2022-11-30T10:07:24.601Z,176.00
2022-11-30T10:08:24.512Z,176.00
2022-11-30T10:09:24.504Z,172.00
2022-11-30T10:10:32.234Z,164.00
2022-11-30T10:11:25.476Z,164.00
2022-11-30T10:12:24.464Z,164.00
2022-11-30T10:13:24.456Z,172.00
2022-11-30T10:14:24.436Z,176.00
2022-11-30T10:15:24.437Z,168.00
2022-11-30T10:16:24.492Z,160.00
2022-11-30T10:17:24.429Z,156.00
2022-11-30T10:18:24.413Z,156.00
2022-11-30T10:19:24.408Z,160.00
2022-11-30T10:20:24.388Z,168.00
2022-11-30T10:21:24.406Z,172.00
2022-11-30T10:22:24.344Z,172.00
2022-11-30T10:23:24.345Z,164.00
2022-11-30T10:24:24.336Z,156.00
2022-11-30T10:25:24.456Z,152.00
2022-11-30T10:26:24.306Z,152.00
2022-11-30T10:27:24.304Z,164.00
2022-11-30T10:28:46.464Z,184.00
2022-11-30T10:29:25.284Z,176.00
2022-11-30T10:30:24.265Z,176.00
2022-11-30T10:31:24.284Z,192.00
2022-11-30T10:32:24.253Z,196.00
2022-11-30T10:33:24.244Z,200.00
2022-11-30T10:34:24.214Z,196.00
2022-11-30T10:35:24.225Z,208.00
2022-11-30T10:36:24.196Z,200.00
2022-11-30T10:37:24.206Z,184.00
2022-11-30T10:38:24.188Z,180.00
2022-11-30T10:39:24.179Z,176.00
2022-11-30T10:40:24.166Z,168.00
2022-11-30T10:41:24.154Z,156.00
2022-11-30T10:42:24.157Z,160.00
2022-11-30T10:43:24.125Z,172.00
2022-11-30T10:44:24.105Z,192.00
2022-11-30T10:45:24.104Z,220.00
2022-11-30T10:46:24.108Z,232.00
2022-11-30T10:47:24.084Z,232.00
2022-11-30T10:48:24.097Z,212.00
2022-11-30T10:49:24.084Z,212.00
2022-11-30T10:50:24.073Z,216.00
2022-11-30T10:51:24.046Z,208.00
2022-11-30T10:52:24.025Z,220.00
2022-11-30T10:53:24.043Z,208.00
2022-11-30T10:54:24.025Z,188.00
2022-11-30T10:55:24.005Z,168.00
2022-11-30T10:56:23.972Z,160.00
2022-11-30T10:57:23.977Z,168.00
2022-11-30T10:58:23.948Z,164.00
2022-11-30T10:59:24.014Z,164.00
2022-11-30T11:00:23.936Z,160.00
2022-11-30T11:01:23.961Z,156.00
2022-11-30T11:02:23.944Z,156.00
2022-11-30T11:03:23.917Z,168.00
2022-11-30T11:04:23.970Z,164.00
2022-11-30T11:05:23.892Z,160.00
2022-11-30T11:06:23.873Z,168.00
2022-11-30T11:07:23.928Z,196.00
2022-11-30T11:08:23.903Z,200.00
2022-11-30T11:09:23.869Z,228.00
2022-11-30T11:10:23.825Z,252.00
2022-11-30T11:11:23.845Z,264.00
2022-11-30T11:12:23.817Z,272.00
2022-11-30T11:13:23.798Z,260.00
2022-11-30T11:14:23.773Z,264.00
2022-11-30T11:15:23.796Z,280.00
2022-11-30T11:16:23.814Z,276.00
2022-11-30T11:17:23.745Z,268.00
2022-11-30T11:18:23.737Z,264.00
2022-11-30T11:19:23.725Z,280.00
2022-11-30T11:20:23.873Z,300.00
2022-11-30T11:21:23.745Z,300.00
2022-11-30T11:22:23.685Z,304.00
2022-11-30T11:23:23.685Z,320.00
2022-11-30T11:24:23.691Z,332.00
2022-11-30T11:25:23.676Z,340.00
2022-11-30T11:26:23.642Z,372.00
2022-11-30T11:27:23.633Z,380.00
2022-11-30T11:28:23.636Z,368.00
2022-11-30T11:29:23.637Z,356.00
2022-11-30T11:30:23.598Z,368.00
2022-11-30T11:31:23.701Z,360.00
2022-11-30T11:32:23.557Z,352.00
2022-11-30T11:33:23.576Z,368.00
2022-11-30T11:34:23.577Z,408.00
2022-11-30T11:35:23.561Z,416.00
2022-11-30T11:36:23.559Z,448.00
2022-11-30T11:37:23.527Z,444.00
2022-11-30T11:38:23.494Z,372.00
2022-11-30T11:39:23.494Z,360.00
2022-11-30T11:40:23.528Z,364.00
2022-11-30T11:41:23.473Z,352.00
2022-11-30T11:42:23.475Z,316.00
2022-11-30T11:43:23.456Z,300.00
2022-11-30T11:44:23.457Z,316.00
2022-11-30T11:45:23.447Z,344.00
2022-11-30T11:46:23.424Z,364.00
2022-11-30T11:47:23.464Z,384.00
2022-11-30T11:48:28.748Z,380.00
2022-11-30T11:49:24.403Z,380.00
2022-11-30T11:50:49.986Z,376.00
2022-11-30T11:51:24.364Z,368.00
2022-11-30T11:52:23.356Z,356.00
2022-11-30T11:53:23.414Z,320.00
2022-11-30T11:54:23.707Z,292.00
2022-11-30T11:55:23.343Z,280.00
2022-11-30T11:56:23.307Z,260.00
2022-11-30T11:57:23.309Z,248.00
2022-11-30T11:58:23.276Z,260.00
2022-11-30T11:59:26.803Z,276.00
2022-11-30T12:00:24.288Z,276.00
2022-11-30T12:01:40.777Z,276.00
2022-11-30T12:02:24.298Z,260.00
2022-11-30T12:03:23.242Z,256.00
2022-11-30T12:04:23.253Z,256.00
2022-11-30T12:05:23.215Z,260.00
2022-11-30T12:06:23.207Z,256.00
2022-11-30T12:07:23.272Z,236.00
2022-11-30T12:08:23.204Z,228.00
2022-11-30T12:09:23.163Z,228.00
2022-11-30T12:10:50.625Z,248.00
2022-11-30T12:11:24.136Z,240.00
2022-11-30T12:12:23.119Z,232.00
2022-11-30T12:13:23.274Z,228.00
2022-11-30T12:14:23.155Z,228.00
2022-11-30T12:15:23.083Z,228.00
2022-11-30T12:16:23.142Z,252.00
2022-11-30T12:17:23.083Z,236.00
2022-11-30T12:18:24.347Z,224.00
2022-11-30T12:19:23.058Z,220.00
2022-11-30T12:20:23.037Z,208.00
2022-11-30T12:21:23.027Z,204.00
2022-11-30T12:22:23.014Z,200.00
2022-11-30T12:23:22.996Z,192.00
2022-11-30T12:24:23.007Z,188.00
2022-11-30T12:25:22.987Z,200.00
2022-11-30T12:26:22.988Z,204.00
2022-11-30T12:27:22.956Z,208.00
2022-11-30T12:28:22.966Z,200.00
2022-11-30T12:29:22.959Z,192.00
2022-11-30T12:30:22.959Z,204.00
2022-11-30T12:31:22.997Z,212.00
2022-11-30T12:32:22.915Z,216.00
2022-11-30T12:33:25.115Z,220.00
2022-11-30T12:34:23.055Z,220.00
2022-11-30T12:35:22.864Z,212.00
2022-11-30T12:36:22.888Z,208.00
2022-11-30T12:37:22.835Z,188.00
2022-11-30T12:38:22.869Z,176.00
2022-11-30T12:39:22.836Z,172.00
2022-11-30T12:40:22.828Z,168.00
2022-11-30T12:41:22.795Z,164.00
2022-11-30T12:42:22.788Z,168.00
2022-11-30T12:43:22.784Z,180.00
2022-11-30T12:44:22.904Z,184.00
2022-11-30T12:45:22.816Z,196.00
2022-11-30T12:46:22.795Z,204.00
2022-11-30T12:47:22.736Z,200.00
2022-11-30T12:48:22.772Z,216.00
2022-11-30T12:49:22.704Z,216.00
2022-11-30T12:50:22.725Z,220.00
2022-11-30T12:51:28.013Z,224.00
2022-11-30T12:52:23.691Z,224.00
2022-11-30T12:53:22.674Z,224.00
2022-11-30T12:54:22.667Z,216.00
2022-11-30T12:55:22.656Z,192.00
2022-11-30T12:56:22.636Z,192.00
2022-11-30T12:57:22.663Z,188.00
2022-11-30T12:58:22.616Z,184.00